createdAt,value
2018-04-17T00:00:58.338Z,117.23
2018-04-17T00:03:30.758Z,270.77
2018-04-17T00:08:49.940Z,146.50
2018-04-17T00:14:10.536Z,127.25
2018-04-17T00:19:36.498Z,208.60
2018-04-17T00:22:13.935Z,121.00
2018-04-17T00:25:50.220Z,114.30
2018-04-17T00:33:49.578Z,312.63
2018-04-17T00:36:40.448Z,535.50
2018-04-17T00:39:15.127Z,580.90
2018-04-17T00:44:37.190Z,682.05
2018-04-17T00:49:50.454Z,83.00
2018-04-17T00:52:27.655Z,98.05
2018-04-17T00:57:41.350Z,104.80
2018-04-17T01:02:54.665Z,171.73
2018-04-17T01:08:28.321Z,109.37
2018-04-17T01:10:59.135Z,106.93
2018-04-17T01:13:30.707Z,100.03
2018-04-17T01:16:02.549Z,99.17
2018-04-17T01:18:33.111Z,109.00
2018-04-17T01:21:04.630Z,103.57
2018-04-17T01:26:30.302Z,508.13
2018-04-17T01:29:01.657Z,626.77
2018-04-17T01:31:31.551Z,449.05
2018-04-17T01:34:01.008Z,566.23
2018-04-17T01:36:32.242Z,445.57
2018-04-17T01:39:02.750Z,228.50
2018-04-17T01:44:48.032Z,390.97
2018-04-17T01:47:28.025Z,258.07
2018-04-17T01:50:12.680Z,386.57
2018-04-17T01:58:53.148Z,173.33
2018-04-17T02:07:01.177Z,668.80
2018-04-17T02:15:04.749Z,289.53
2018-04-17T02:17:44.446Z,324.27
2018-04-17T02:20:30.416Z,99.07
2018-04-17T02:23:18.789Z,682.03
2018-04-17T02:26:01.541Z,628.37
2018-04-17T02:29:21.569Z,1074.87
2018-04-17T02:31:53.706Z,427.43
2018-04-17T02:34:28.427Z,1059.77
2018-04-17T02:39:47.633Z,992.07
2018-04-17T02:42:19.220Z,125.53
2018-04-17T02:44:59.960Z,709.07
2018-04-17T02:47:40.785Z,243.43
2018-04-17T02:50:14.533Z,847.77
2018-04-17T02:52:48.112Z,863.60
2018-04-17T02:55:18.475Z,454.03
2018-04-17T02:57:48.536Z,573.73
2018-04-17T03:00:19.281Z,129.97
2018-04-17T03:02:50.116Z,116.13
2018-04-17T03:05:31.136Z,436.10
2018-04-17T03:08:04.483Z,116.53
2018-04-17T03:10:34.195Z,655.80
2018-04-17T03:13:04.733Z,149.30
2018-04-17T03:15:45.017Z,251.60
2018-04-17T03:21:07.196Z,1094.03
2018-04-17T03:23:39.300Z,953.70
2018-04-17T03:26:10.582Z,631.50
2018-04-17T03:31:43.994Z,931.17
2018-04-17T03:34:16.904Z,885.53
2018-04-17T03:36:46.666Z,1103.73
2018-04-17T03:39:16.648Z,606.40
2018-04-17T03:41:45.711Z,1044.57
2018-04-17T03:44:13.787Z,1133.67
2018-04-17T03:46:42.318Z,1082.50
2018-04-17T03:51:50.353Z,962.83
2018-04-17T03:54:21.626Z,348.13
2018-04-17T03:59:38.866Z,250.57
2018-04-17T04:02:14.276Z,291.73
2018-04-17T04:05:02.442Z,269.40
2018-04-17T04:10:12.194Z,267.40
2018-04-17T04:12:43.558Z,318.50
2018-04-17T04:18:43.540Z,234.23
2018-04-17T04:21:25.187Z,371.10
2018-04-17T04:24:05.105Z,376.47
2018-04-17T04:26:48.756Z,238.70
2018-04-17T04:29:31.763Z,216.00
2018-04-17T04:32:12.227Z,430.33
2018-04-17T04:34:43.283Z,318.00
2018-04-17T04:37:14.201Z,390.50
2018-04-17T04:39:44.823Z,348.77
2018-04-17T04:48:26.221Z,861.85
2018-04-17T04:51:02.540Z,583.30
2018-04-17T05:10:47.640Z,877.03
2018-04-17T05:43:49.330Z,540.90
2018-04-17T05:46:26.666Z,517.00
2018-04-17T05:49:02.736Z,520.50
2018-04-17T05:51:37.555Z,516.37
2018-04-17T05:54:13.527Z,589.55
2018-04-17T05:56:55.005Z,510.40
2018-04-17T06:02:21.863Z,726.43
2018-04-17T06:43:40.916Z,303.27
2018-04-17T06:46:20.489Z,343.93
2018-04-17T06:49:21.318Z,264.87
2018-04-17T06:51:52.150Z,277.90
2018-04-17T06:54:24.418Z,244.40
2018-04-17T06:56:53.102Z,270.63
2018-04-17T06:59:27.063Z,289.10
2018-04-17T07:02:00.780Z,249.37
2018-04-17T07:04:33.324Z,206.87
2018-04-17T07:07:02.203Z,180.27
2018-04-17T07:09:32.343Z,213.40
2018-04-17T07:12:02.104Z,181.00
2018-04-17T07:17:12.279Z,182.47
2018-04-17T07:19:40.747Z,179.93
2018-04-17T07:22:09.861Z,180.87
2018-04-17T07:24:37.960Z,201.00
2018-04-17T07:27:06.846Z,178.70
2018-04-17T07:29:36.019Z,186.13
2018-04-17T07:32:04.792Z,157.50
2018-04-17T07:34:34.448Z,175.70
2018-04-17T07:37:02.316Z,159.33
2018-04-17T07:39:30.064Z,146.43
2018-04-17T07:41:57.869Z,142.20
2018-04-17T07:44:27.162Z,151.70
2018-04-17T07:47:08.128Z,148.90
2018-04-17T07:49:35.992Z,138.60
2018-04-17T07:52:03.745Z,143.80
2018-04-17T07:54:31.556Z,140.40
2018-04-17T07:56:59.472Z,147.40
2018-04-17T07:59:27.545Z,122.70
2018-04-17T08:01:55.281Z,126.27
2018-04-17T08:04:23.353Z,120.23
2018-04-17T08:06:51.330Z,111.60
2018-04-17T08:09:19.349Z,130.00
2018-04-17T08:11:47.393Z,128.20
2018-04-17T08:14:15.449Z,135.43
2018-04-17T08:16:43.493Z,126.77
2018-04-17T08:19:12.476Z,111.80
2018-04-17T08:21:40.230Z,128.77
2018-04-17T08:24:08.996Z,113.63
2018-04-17T08:26:37.105Z,105.80
2018-04-17T08:29:05.775Z,113.67
2018-04-17T08:31:34.545Z,115.30
2018-04-17T08:34:02.479Z,118.27
2018-04-17T08:36:31.571Z,108.20
2018-04-17T08:38:59.573Z,112.40
2018-04-17T08:41:28.495Z,105.90
2018-04-17T08:43:57.292Z,97.13
2018-04-17T08:46:26.963Z,118.53
2018-04-17T08:48:54.961Z,106.90
2018-04-17T08:51:24.421Z,103.87
2018-04-17T08:53:52.935Z,101.23
2018-04-17T08:56:21.110Z,118.20
2018-04-17T08:58:49.453Z,107.90
2018-04-17T09:01:17.246Z,110.03
2018-04-17T09:03:45.236Z,109.13
2018-04-17T09:06:12.985Z,99.57
2018-04-17T09:08:40.842Z,96.53
2018-04-17T09:11:09.452Z,99.17
2018-04-17T09:13:37.262Z,84.40
2018-04-17T09:16:05.155Z,91.27
2018-04-17T09:18:33.843Z,118.40
2018-04-17T09:21:01.767Z,89.20
2018-04-17T09:23:30.707Z,107.27
2018-04-17T09:25:58.921Z,106.73
2018-04-17T09:28:27.701Z,106.10
2018-04-17T09:30:56.340Z,113.40
2018-04-17T09:33:24.029Z,117.35
2018-04-17T09:35:51.641Z,112.73
2018-04-17T09:38:20.287Z,116.47
2018-04-17T09:40:50.091Z,126.40
2018-04-17T09:43:18.016Z,122.40
2018-04-17T09:45:46.058Z,112.97
2018-04-17T09:48:14.078Z,120.90
2018-04-17T09:50:42.340Z,118.90
2018-04-17T09:53:11.169Z,111.53
2018-04-17T09:55:39.248Z,118.87
2018-04-17T09:58:08.204Z,110.80
2018-04-17T10:00:42.120Z,107.57
2018-04-17T10:03:09.650Z,104.13
2018-04-17T10:05:37.368Z,117.07
2018-04-17T10:08:05.131Z,105.80
2018-04-17T10:10:33.856Z,103.43
2018-04-17T10:13:02.704Z,109.27
2018-04-17T10:15:31.464Z,76.25
2018-04-17T10:17:59.956Z,79.27
2018-04-17T10:20:27.853Z,75.77
2018-04-17T10:22:55.806Z,80.03
2018-04-17T10:25:23.576Z,71.30
2018-04-17T10:27:51.398Z,72.67
2018-04-17T10:30:20.418Z,70.90
2018-04-17T10:32:48.418Z,77.00
2018-04-17T10:35:16.459Z,83.60
2018-04-17T10:37:44.471Z,82.30
2018-04-17T10:40:12.246Z,79.63
2018-04-17T10:42:40.284Z,66.90
2018-04-17T10:45:08.531Z,76.50
2018-04-17T10:47:36.996Z,78.90
2018-04-17T10:50:04.890Z,65.40
2018-04-17T10:52:33.626Z,67.50
2018-04-17T10:55:01.547Z,66.67
2018-04-17T10:57:30.328Z,71.20
2018-04-17T10:59:59.134Z,69.50
2018-04-17T11:02:27.011Z,65.67
2018-04-17T11:04:55.600Z,67.97
2018-04-17T11:07:23.915Z,65.73
2018-04-17T11:09:51.591Z,66.50
2018-04-17T11:12:19.418Z,69.70
2018-04-17T11:14:48.065Z,63.53
2018-04-17T11:17:17.675Z,65.87
2018-04-17T11:19:46.224Z,58.30
2018-04-17T11:22:14.240Z,70.60
2018-04-17T11:24:42.004Z,63.30
2018-04-17T11:27:10.531Z,63.05
2018-04-17T11:29:38.042Z,57.10
2018-04-17T11:32:06.342Z,63.57
2018-04-17T11:34:34.711Z,59.10
2018-04-17T11:37:02.191Z,64.30
2018-04-17T11:39:30.028Z,61.55
2018-04-17T11:41:59.875Z,66.33
2018-04-17T11:44:27.430Z,62.00
2018-04-17T11:46:54.945Z,63.60
2018-04-17T11:49:22.551Z,75.17
2018-04-17T11:54:49.160Z,56.50
2018-04-17T11:57:17.878Z,55.67
2018-04-17T11:59:48.332Z,63.53
2018-04-17T12:02:22.448Z,64.90
2018-04-17T12:04:49.951Z,60.17
2018-04-17T12:07:17.549Z,52.90
2018-04-17T12:09:45.910Z,57.90
2018-04-17T12:12:14.204Z,53.20
2018-04-17T12:14:42.234Z,55.23
2018-04-17T12:17:18.787Z,54.07
2018-04-17T12:19:46.517Z,58.20
2018-04-17T12:22:14.083Z,62.13
2018-04-17T12:24:42.585Z,55.13
2018-04-17T12:27:10.831Z,52.17
2018-04-17T12:29:38.346Z,64.20
2018-04-17T12:32:06.319Z,66.43
2018-04-17T12:34:33.873Z,57.77
2018-04-17T12:37:01.420Z,57.73
2018-04-17T12:39:28.940Z,58.60
2018-04-17T12:41:56.466Z,53.10
2018-04-17T12:44:25.869Z,59.13
2018-04-17T12:46:53.463Z,50.13
2018-04-17T12:49:22.452Z,49.17
2018-04-17T12:52:03.349Z,53.73
2018-04-17T12:54:30.850Z,47.20
2018-04-17T12:56:58.950Z,65.50
2018-04-17T13:02:20.031Z,60.77
2018-04-17T13:04:49.014Z,56.80
2018-04-17T13:07:18.847Z,56.23
2018-04-17T13:12:46.867Z,54.13
2018-04-17T13:15:18.650Z,54.37
2018-04-17T13:20:48.155Z,47.47
2018-04-17T13:23:15.761Z,46.03
2018-04-17T13:25:43.301Z,37.50
2018-04-17T13:28:10.806Z,45.90
2018-04-17T13:30:38.481Z,41.00
2018-04-17T13:33:07.182Z,47.67
2018-04-17T13:35:35.145Z,40.90
2018-04-17T13:38:03.691Z,43.20
2018-04-17T13:40:31.713Z,43.77
2018-04-17T13:42:59.554Z,34.00
2018-04-17T13:45:28.139Z,44.60
2018-04-17T13:47:56.858Z,35.43
2018-04-17T13:50:24.607Z,40.03
2018-04-17T13:52:53.835Z,39.73
2018-04-17T13:55:22.584Z,29.83
2018-04-17T13:57:51.311Z,36.60
2018-04-17T14:00:19.888Z,32.70
2018-04-17T14:02:47.799Z,32.27
2018-04-17T14:05:15.987Z,33.10
2018-04-17T14:07:44.898Z,29.43
2018-04-17T14:10:12.610Z,36.07
2018-04-17T14:12:40.249Z,33.70
2018-04-17T14:15:07.866Z,30.20
2018-04-17T14:17:35.470Z,30.17
2018-04-17T14:20:03.094Z,21.37
2018-04-17T14:22:30.772Z,28.10
2018-04-17T14:24:58.462Z,31.73
2018-04-17T14:27:26.451Z,26.90
2018-04-17T14:29:54.073Z,33.77
2018-04-17T14:32:22.963Z,31.80
2018-04-17T14:34:51.392Z,18.57
2018-04-17T14:37:19.703Z,23.53
2018-04-17T14:39:47.422Z,24.60
2018-04-17T14:42:15.068Z,27.97
2018-04-17T14:44:42.588Z,26.97
2018-04-17T14:47:10.193Z,29.60
2018-04-17T14:49:37.834Z,25.70
2018-04-17T14:52:06.146Z,27.30
2018-04-17T14:54:33.659Z,23.10
2018-04-17T14:57:01.471Z,31.77
2018-04-17T14:59:29.284Z,28.60
2018-04-17T15:01:57.029Z,26.77
2018-04-17T15:04:24.759Z,29.53
2018-04-17T15:06:52.446Z,31.03
2018-04-17T15:09:20.661Z,31.70
2018-04-17T15:11:49.545Z,32.87
2018-04-17T15:14:17.790Z,29.13
2018-04-17T15:16:46.694Z,33.20
2018-04-17T15:19:14.993Z,34.37
2018-04-17T15:21:42.829Z,34.50
2018-04-17T15:24:10.711Z,36.33
2018-04-17T15:26:39.063Z,35.90
2018-04-17T15:29:07.109Z,35.30
2018-04-17T15:31:35.559Z,47.30
2018-04-17T15:34:03.706Z,35.43
2018-04-17T15:36:31.711Z,44.37
2018-04-17T15:39:00.409Z,54.90
2018-04-17T15:41:29.492Z,41.50
2018-04-17T15:43:58.752Z,41.50
2018-04-17T15:46:29.568Z,42.83
2018-04-17T15:48:57.636Z,39.27
2018-04-17T15:51:26.548Z,42.23
2018-04-17T15:53:55.064Z,47.07
2018-04-17T15:56:23.090Z,47.60
2018-04-17T15:58:51.262Z,41.43
2018-04-17T16:01:19.218Z,49.10
2018-04-17T16:03:48.950Z,46.27
2018-04-17T16:06:16.886Z,51.33
2018-04-17T16:08:45.677Z,56.30
2018-04-17T16:11:14.056Z,58.97
2018-04-17T16:13:42.933Z,60.43
2018-04-17T16:16:11.895Z,56.47
2018-04-17T16:18:40.351Z,56.50
2018-04-17T16:21:09.341Z,59.33
2018-04-17T16:23:37.803Z,58.37
2018-04-17T16:26:05.956Z,50.80
2018-04-17T16:28:34.093Z,58.07
2018-04-17T16:31:02.089Z,62.80
2018-04-17T16:33:30.352Z,57.90
2018-04-17T16:35:58.340Z,64.40
2018-04-17T16:38:26.502Z,55.13
2018-04-17T16:40:55.001Z,56.13
2018-04-17T16:43:24.218Z,58.47
2018-04-17T16:45:53.061Z,84.03
2018-04-17T16:48:21.052Z,80.87
2018-04-17T16:50:49.291Z,89.23
2018-04-17T16:53:17.146Z,87.47
2018-04-17T16:55:46.112Z,61.70
2018-04-17T16:58:14.068Z,55.17
2018-04-17T17:00:42.710Z,67.73
2018-04-17T17:03:11.466Z,59.50
2018-04-17T17:05:39.083Z,56.63
2018-04-17T17:08:07.686Z,59.47
2018-04-17T17:10:35.455Z,58.47
2018-04-17T17:13:04.091Z,61.47
2018-04-17T17:15:32.230Z,59.20
2018-04-17T17:18:00.044Z,58.47
2018-04-17T17:20:27.821Z,65.43
2018-04-17T17:22:56.133Z,75.07
2018-04-17T17:25:24.430Z,73.30
2018-04-17T17:27:54.707Z,66.90
2018-04-17T17:30:23.091Z,65.13
2018-04-17T17:32:51.300Z,64.63
2018-04-17T17:35:19.030Z,63.47
2018-04-17T17:37:46.805Z,81.10
2018-04-17T17:40:15.684Z,81.20
2018-04-17T17:42:43.523Z,82.30
2018-04-17T17:45:12.023Z,80.00
2018-04-17T17:47:40.678Z,71.53
2018-04-17T18:04:31.918Z,64.90
2018-04-17T18:12:48.217Z,69.83
2018-04-17T18:18:09.786Z,63.80
2018-04-17T18:20:44.995Z,73.40
2018-04-17T18:26:07.470Z,68.50
2018-04-17T18:28:41.536Z,63.50
2018-04-17T18:31:11.106Z,67.33
2018-04-17T18:33:39.197Z,64.87
2018-04-17T18:36:08.936Z,64.77
2018-04-17T18:38:45.731Z,62.30
2018-04-17T18:44:08.045Z,68.43
2018-04-17T18:46:43.439Z,64.10
2018-04-17T18:49:16.155Z,46.30
2018-04-17T18:51:45.696Z,66.27
2018-04-17T18:54:14.762Z,66.43
2018-04-17T18:59:40.650Z,69.05
2018-04-17T19:04:57.358Z,65.67
2018-04-17T19:10:18.760Z,68.13
2018-04-17T19:12:47.455Z,76.47
2018-04-17T19:15:16.408Z,61.20
2018-04-17T19:20:49.725Z,69.90
2018-04-17T19:23:19.951Z,66.43
2018-04-17T19:25:52.999Z,67.40
2018-04-17T19:31:18.209Z,65.60
2018-04-17T19:33:48.291Z,70.80
2018-04-17T19:39:11.361Z,83.53
2018-04-17T19:44:29.029Z,79.93
2018-04-17T19:46:58.013Z,61.23
2018-04-17T19:49:26.860Z,56.47
2018-04-17T19:51:56.397Z,62.17
2018-04-17T19:57:22.837Z,55.23
2018-04-17T20:05:27.480Z,68.97
2018-04-17T20:07:55.570Z,72.13
2018-04-17T20:10:26.753Z,83.40
2018-04-17T20:12:55.597Z,92.37
2018-04-17T20:15:24.124Z,88.67
2018-04-17T20:17:53.329Z,93.30
2018-04-17T20:20:22.476Z,98.90
2018-04-17T20:22:53.169Z,99.23
2018-04-17T20:25:23.729Z,95.47
2018-04-17T20:27:53.216Z,89.00
2018-04-17T20:30:22.723Z,95.10
2018-04-17T20:32:51.553Z,101.37
2018-04-17T20:35:19.779Z,103.10
2018-04-17T20:37:47.727Z,97.30
2018-04-17T20:40:16.087Z,96.80
2018-04-17T20:42:43.954Z,80.13
2018-04-17T20:45:14.190Z,77.20
2018-04-17T20:47:44.251Z,86.17
2018-04-17T20:50:13.511Z,97.83
2018-04-17T20:52:42.251Z,91.87
2018-04-17T20:55:11.865Z,80.43
2018-04-17T20:57:40.831Z,90.00
2018-04-17T21:00:09.191Z,100.33
2018-04-17T21:02:39.933Z,144.07
2018-04-17T21:05:08.766Z,127.37
2018-04-17T21:10:35.994Z,121.07
2018-04-17T21:13:04.005Z,87.00
2018-04-17T21:15:34.435Z,99.13
2018-04-17T21:18:02.223Z,138.47
2018-04-17T21:20:31.536Z,146.07
2018-04-17T21:22:59.416Z,117.43
2018-04-17T21:25:27.831Z,118.33
2018-04-17T21:27:56.732Z,114.43
2018-04-17T21:30:24.729Z,111.23
2018-04-17T21:32:54.819Z,89.13
2018-04-17T21:35:22.899Z,103.40
2018-04-17T21:37:52.451Z,92.60
2018-04-17T21:40:23.838Z,100.73
2018-04-17T21:42:54.641Z,93.87
2018-04-17T21:45:36.521Z,103.10
2018-04-17T21:48:06.130Z,102.03
2018-04-17T21:50:34.801Z,82.20
2018-04-17T21:53:06.069Z,78.27
2018-04-17T21:55:37.037Z,90.40
2018-04-17T21:58:05.361Z,84.63
2018-04-17T22:00:33.187Z,89.07
2018-04-17T22:03:02.403Z,72.87
2018-04-17T22:05:30.338Z,85.27
2018-04-17T22:07:58.071Z,78.47
2018-04-17T22:10:27.793Z,94.67
2018-04-17T22:12:58.486Z,106.47
2018-04-17T22:15:27.709Z,89.17
2018-04-17T22:17:56.598Z,106.27
2018-04-17T22:20:25.268Z,110.60
2018-04-17T22:22:53.832Z,111.60
2018-04-17T22:25:22.943Z,139.00
2018-04-17T22:27:52.121Z,140.37
2018-04-17T22:30:21.607Z,92.27
2018-04-17T22:32:51.287Z,132.33
2018-04-17T22:35:21.083Z,108.63
2018-04-17T22:37:49.938Z,103.40
2018-04-17T22:40:19.751Z,97.73
2018-04-17T22:42:51.609Z,117.13
2018-04-17T22:45:21.399Z,123.33
2018-04-17T22:47:52.209Z,148.17
2018-04-17T22:50:33.746Z,133.30
2018-04-17T22:53:02.707Z,111.47
2018-04-17T22:55:33.282Z,111.40
2018-04-17T22:58:06.836Z,133.47
2018-04-17T23:00:41.117Z,173.97
2018-04-17T23:03:11.844Z,152.07
2018-04-17T23:08:23.169Z,192.97
2018-04-17T23:10:52.513Z,104.37
2018-04-17T23:13:20.337Z,87.00
2018-04-17T23:15:48.565Z,119.70
2018-04-17T23:18:18.131Z,116.03
2018-04-17T23:20:47.067Z,113.17
2018-04-17T23:23:19.007Z,86.50
2018-04-17T23:25:47.911Z,115.07
2018-04-17T23:28:18.911Z,160.67
2018-04-17T23:30:54.025Z,173.63
2018-04-17T23:33:23.558Z,190.20
2018-04-17T23:35:52.991Z,206.00
2018-04-17T23:38:23.268Z,141.07
2018-04-17T23:40:51.386Z,119.90
2018-04-17T23:43:21.121Z,117.17
2018-04-17T23:45:55.105Z,119.27
2018-04-17T23:48:23.535Z,153.23
2018-04-17T23:50:51.513Z,144.50
2018-04-17T23:53:19.426Z,126.17
2018-04-17T23:55:51.058Z,107.23
2018-04-17T23:58:19.250Z,145.00
